sensor_id;sensor_type;location;lat;lon;timestamp;P1;durP1;ratioP1;P2;durP2;ratioP2
31618;SDS011;18230;51.502;7.108;2024-02-21T00:04:31;42.70;;;16.05;;
31618;SDS011;18230;51.502;7.108;2024-02-21T00:09:32;42.13;;;16.00;;
31618;SDS011;18230;51.502;7.108;2024-02-21T00:14:32;39.65;;;14.88;;
31618;SDS011;18230;51.502;7.108;2024-02-21T00:19:33;42.83;;;15.65;;
31618;SDS011;18230;51.502;7.108;2024-02-21T00:24:34;43.95;;;14.68;;
31618;SDS011;18230;51.502;7.108;2024-02-21T00:29:34;41.47;;;15.27;;
31618;SDS011;18230;51.502;7.108;2024-02-21T00:34:35;38.92;;;14.65;;
31618;SDS011;18230;51.502;7.108;2024-02-21T00:39:36;44.10;;;16.05;;
31618;SDS011;18230;51.502;7.108;2024-02-21T00:44:37;42.28;;;16.50;;
31618;SDS011;18230;51.502;7.108;2024-02-21T00:49:37;34.35;;;14.50;;
31618;SDS011;18230;51.502;7.108;2024-02-21T00:54:38;34.85;;;15.32;;
31618;SDS011;18230;51.502;7.108;2024-02-21T00:59:39;42.42;;;14.88;;
31618;SDS011;18230;51.502;7.108;2024-02-21T01:04:39;36.30;;;15.68;;
31618;SDS011;18230;51.502;7.108;2024-02-21T01:09:40;44.30;;;15.93;;
31618;SDS011;18230;51.502;7.108;2024-02-21T01:14:40;49.22;;;15.93;;
31618;SDS011;18230;51.502;7.108;2024-02-21T01:19:41;34.38;;;14.77;;
31618;SDS011;18230;51.502;7.108;2024-02-21T01:24:41;44.03;;;15.15;;
31618;SDS011;18230;51.502;7.108;2024-02-21T01:29:42;39.80;;;15.65;;
31618;SDS011;18230;51.502;7.108;2024-02-21T01:34:43;41.60;;;14.88;;
31618;SDS011;18230;51.502;7.108;2024-02-21T01:39:44;37.58;;;14.13;;
31618;SDS011;18230;51.502;7.108;2024-02-21T01:44:44;43.45;;;14.85;;
31618;SDS011;18230;51.502;7.108;2024-02-21T01:49:45;38.65;;;14.90;;
31618;SDS011;18230;51.502;7.108;2024-02-21T01:54:46;31.05;;;14.55;;
31618;SDS011;18230;51.502;7.108;2024-02-21T01:59:47;41.15;;;14.20;;
31618;SDS011;18230;51.502;7.108;2024-02-21T02:04:48;34.70;;;13.73;;
31618;SDS011;18230;51.502;7.108;2024-02-21T02:09:49;35.05;;;13.75;;
31618;SDS011;18230;51.502;7.108;2024-02-21T02:15:00;33.33;;;14.48;;
31618;SDS011;18230;51.502;7.108;2024-02-21T02:20:01;34.95;;;13.60;;
31618;SDS011;18230;51.502;7.108;2024-02-21T02:25:01;37.00;;;14.43;;
31618;SDS011;18230;51.502;7.108;2024-02-21T02:30:03;36.38;;;13.52;;
31618;SDS011;18230;51.502;7.108;2024-02-21T02:35:04;40.63;;;13.57;;
31618;SDS011;18230;51.502;7.108;2024-02-21T02:40:06;40.38;;;13.35;;
31618;SDS011;18230;51.502;7.108;2024-02-21T02:45:07;45.63;;;14.88;;
31618;SDS011;18230;51.502;7.108;2024-02-21T02:50:08;36.45;;;13.65;;
31618;SDS011;18230;51.502;7.108;2024-02-21T02:55:09;39.05;;;14.23;;
31618;SDS011;18230;51.502;7.108;2024-02-21T03:00:10;41.33;;;13.05;;
31618;SDS011;18230;51.502;7.108;2024-02-21T03:05:15;44.13;;;15.20;;
31618;SDS011;18230;51.502;7.108;2024-02-21T03:10:17;37.15;;;13.57;;
31618;SDS011;18230;51.502;7.108;2024-02-21T03:15:18;34.70;;;12.75;;
31618;SDS011;18230;51.502;7.108;2024-02-21T03:20:18;35.78;;;12.45;;
31618;SDS011;18230;51.502;7.108;2024-02-21T03:25:19;35.72;;;11.88;;
31618;SDS011;18230;51.502;7.108;2024-02-21T03:30:20;34.13;;;12.10;;
31618;SDS011;18230;51.502;7.108;2024-02-21T03:35:21;32.85;;;12.70;;
31618;SDS011;18230;51.502;7.108;2024-02-21T03:40:22;40.67;;;12.10;;
31618;SDS011;18230;51.502;7.108;2024-02-21T03:45:22;36.40;;;12.90;;
31618;SDS011;18230;51.502;7.108;2024-02-21T03:50:23;33.70;;;12.73;;
31618;SDS011;18230;51.502;7.108;2024-02-21T03:55:25;32.38;;;12.48;;
31618;SDS011;18230;51.502;7.108;2024-02-21T04:00:26;32.88;;;11.85;;
31618;SDS011;18230;51.502;7.108;2024-02-21T04:05:27;34.40;;;12.52;;
31618;SDS011;18230;51.502;7.108;2024-02-21T04:10:27;35.40;;;12.60;;
31618;SDS011;18230;51.502;7.108;2024-02-21T04:15:28;28.33;;;12.07;;
31618;SDS011;18230;51.502;7.108;2024-02-21T04:20:29;42.35;;;13.10;;
31618;SDS011;18230;51.502;7.108;2024-02-21T04:25:30;35.20;;;12.27;;
31618;SDS011;18230;51.502;7.108;2024-02-21T04:30:30;41.67;;;12.15;;
31618;SDS011;18230;51.502;7.108;2024-02-21T04:35:31;28.83;;;11.80;;
31618;SDS011;18230;51.502;7.108;2024-02-21T04:40:32;31.70;;;11.40;;
31618;SDS011;18230;51.502;7.108;2024-02-21T04:45:32;32.15;;;11.00;;
31618;SDS011;18230;51.502;7.108;2024-02-21T04:50:33;29.63;;;11.38;;
31618;SDS011;18230;51.502;7.108;2024-02-21T04:55:33;25.60;;;9.20;;
31618;SDS011;18230;51.502;7.108;2024-02-21T05:00:34;31.13;;;11.48;;
31618;SDS011;18230;51.502;7.108;2024-02-21T05:05:35;29.95;;;10.68;;
31618;SDS011;18230;51.502;7.108;2024-02-21T05:10:36;24.13;;;9.45;;
31618;SDS011;18230;51.502;7.108;2024-02-21T05:15:36;29.17;;;9.93;;
31618;SDS011;18230;51.502;7.108;2024-02-21T05:20:37;27.73;;;8.63;;
31618;SDS011;18230;51.502;7.108;2024-02-21T05:25:37;25.88;;;8.68;;
31618;SDS011;18230;51.502;7.108;2024-02-21T05:30:38;26.13;;;8.48;;
31618;SDS011;18230;51.502;7.108;2024-02-21T05:35:40;27.25;;;8.75;;
31618;SDS011;18230;51.502;7.108;2024-02-21T05:40:41;17.90;;;8.43;;
31618;SDS011;18230;51.502;7.108;2024-02-21T05:45:42;21.58;;;8.00;;
31618;SDS011;18230;51.502;7.108;2024-02-21T05:50:43;19.70;;;8.07;;
31618;SDS011;18230;51.502;7.108;2024-02-21T05:55:43;27.17;;;8.77;;
31618;SDS011;18230;51.502;7.108;2024-02-21T06:00:44;26.95;;;8.77;;
31618;SDS011;18230;51.502;7.108;2024-02-21T06:05:45;25.10;;;7.97;;
31618;SDS011;18230;51.502;7.108;2024-02-21T06:10:45;24.63;;;7.63;;
31618;SDS011;18230;51.502;7.108;2024-02-21T06:15:47;17.95;;;6.30;;
31618;SDS011;18230;51.502;7.108;2024-02-21T06:20:49;23.60;;;6.68;;
31618;SDS011;18230;51.502;7.108;2024-02-21T06:25:50;21.73;;;6.50;;
31618;SDS011;18230;51.502;7.108;2024-02-21T06:30:50;21.63;;;7.15;;
31618;SDS011;18230;51.502;7.108;2024-02-21T06:35:51;25.35;;;7.30;;
31618;SDS011;18230;51.502;7.108;2024-02-21T06:40:53;17.48;;;6.13;;
31618;SDS011;18230;51.502;7.108;2024-02-21T06:45:54;20.45;;;6.97;;
31618;SDS011;18230;51.502;7.108;2024-02-21T06:50:56;19.73;;;6.50;;
31618;SDS011;18230;51.502;7.108;2024-02-21T06:55:57;21.60;;;7.07;;
31618;SDS011;18230;51.502;7.108;2024-02-21T07:00:58;22.00;;;6.55;;
31618;SDS011;18230;51.502;7.108;2024-02-21T07:05:58;19.98;;;7.13;;
31618;SDS011;18230;51.502;7.108;2024-02-21T07:10:59;22.55;;;7.18;;
31618;SDS011;18230;51.502;7.108;2024-02-21T07:15:59;18.67;;;6.82;;
31618;SDS011;18230;51.502;7.108;2024-02-21T07:21:00;19.13;;;6.32;;
31618;SDS011;18230;51.502;7.108;2024-02-21T07:26:01;13.80;;;6.53;;
31618;SDS011;18230;51.502;7.108;2024-02-21T07:31:02;20.92;;;6.75;;
31618;SDS011;18230;51.502;7.108;2024-02-21T07:36:07;14.15;;;6.60;;
31618;SDS011;18230;51.502;7.108;2024-02-21T07:41:11;25.35;;;6.53;;
31618;SDS011;18230;51.502;7.108;2024-02-21T07:46:11;22.08;;;7.22;;
31618;SDS011;18230;51.502;7.108;2024-02-21T07:51:12;21.08;;;6.75;;
31618;SDS011;18230;51.502;7.108;2024-02-21T07:56:13;22.40;;;7.13;;
31618;SDS011;18230;51.502;7.108;2024-02-21T08:01:18;21.75;;;7.18;;
31618;SDS011;18230;51.502;7.108;2024-02-21T08:11:22;18.23;;;6.35;;
31618;SDS011;18230;51.502;7.108;2024-02-21T08:16:23;16.17;;;5.97;;
31618;SDS011;18230;51.502;7.108;2024-02-21T08:21:23;16.50;;;5.80;;
31618;SDS011;18230;51.502;7.108;2024-02-21T08:26:24;16.27;;;5.93;;
31618;SDS011;18230;51.502;7.108;2024-02-21T08:31:28;17.75;;;5.65;;
31618;SDS011;18230;51.502;7.108;2024-02-21T08:36:31;14.07;;;4.60;;
31618;SDS011;18230;51.502;7.108;2024-02-21T08:41:35;20.60;;;5.47;;
31618;SDS011;18230;51.502;7.108;2024-02-21T08:46:36;16.02;;;4.97;;
31618;SDS011;18230;51.502;7.108;2024-02-21T08:51:40;20.33;;;5.88;;
31618;SDS011;18230;51.502;7.108;2024-02-21T08:56:40;21.27;;;6.72;;
31618;SDS011;18230;51.502;7.108;2024-02-21T09:01:41;22.13;;;5.72;;
31618;SDS011;18230;51.502;7.108;2024-02-21T09:06:42;21.13;;;6.28;;
31618;SDS011;18230;51.502;7.108;2024-02-21T09:11:42;17.90;;;6.32;;
31618;SDS011;18230;51.502;7.108;2024-02-21T09:16:43;20.48;;;5.93;;
31618;SDS011;18230;51.502;7.108;2024-02-21T09:21:44;17.55;;;5.18;;
31618;SDS011;18230;51.502;7.108;2024-02-21T09:26:44;21.67;;;6.05;;
31618;SDS011;18230;51.502;7.108;2024-02-21T09:31:45;19.88;;;5.88;;
31618;SDS011;18230;51.502;7.108;2024-02-21T09:36:47;21.48;;;5.30;;
31618;SDS011;18230;51.502;7.108;2024-02-21T09:41:50;19.55;;;5.03;;
31618;SDS011;18230;51.502;7.108;2024-02-21T09:47:02;16.75;;;5.07;;
31618;SDS011;18230;51.502;7.108;2024-02-21T09:57:07;18.42;;;5.70;;
31618;SDS011;18230;51.502;7.108;2024-02-21T10:02:08;16.63;;;7.30;;
31618;SDS011;18230;51.502;7.108;2024-02-21T10:07:09;21.35;;;6.05;;
31618;SDS011;18230;51.502;7.108;2024-02-21T10:12:10;14.02;;;4.82;;
31618;SDS011;18230;51.502;7.108;2024-02-21T10:17:17;20.63;;;5.15;;
31618;SDS011;18230;51.502;7.108;2024-02-21T10:22:20;20.30;;;5.88;;
31618;SDS011;18230;51.502;7.108;2024-02-21T10:27:23;19.25;;;8.18;;
31618;SDS011;18230;51.502;7.108;2024-02-21T10:32:23;22.77;;;6.97;;
31618;SDS011;18230;51.502;7.108;2024-02-21T10:37:26;18.17;;;6.43;;
31618;SDS011;18230;51.502;7.108;2024-02-21T10:42:29;21.52;;;5.78;;
31618;SDS011;18230;51.502;7.108;2024-02-21T10:47:34;18.35;;;4.95;;
31618;SDS011;18230;51.502;7.108;2024-02-21T10:52:48;18.13;;;5.25;;
31618;SDS011;18230;51.502;7.108;2024-02-21T10:57:57;13.15;;;4.63;;
31618;SDS011;18230;51.502;7.108;2024-02-21T11:02:58;18.58;;;4.75;;
31618;SDS011;18230;51.502;7.108;2024-02-21T11:08:00;13.48;;;4.35;;
31618;SDS011;18230;51.502;7.108;2024-02-21T11:13:08;14.07;;;4.63;;
31618;SDS011;18230;51.502;7.108;2024-02-21T11:18:09;12.82;;;4.80;;
31618;SDS011;18230;51.502;7.108;2024-02-21T11:23:09;13.95;;;4.28;;
31618;SDS011;18230;51.502;7.108;2024-02-21T11:28:11;13.88;;;5.30;;
31618;SDS011;18230;51.502;7.108;2024-02-21T11:33:12;20.92;;;8.30;;
31618;SDS011;18230;51.502;7.108;2024-02-21T11:38:12;13.02;;;3.40;;
31618;SDS011;18230;51.502;7.108;2024-02-21T11:43:17;13.38;;;3.70;;
31618;SDS011;18230;51.502;7.108;2024-02-21T11:48:17;15.25;;;4.95;;
31618;SDS011;18230;51.502;7.108;2024-02-21T11:53:18;13.82;;;4.88;;
31618;SDS011;18230;51.502;7.108;2024-02-21T11:58:20;13.48;;;4.55;;
31618;SDS011;18230;51.502;7.108;2024-02-21T12:03:21;11.07;;;3.78;;
31618;SDS011;18230;51.502;7.108;2024-02-21T12:08:21;17.75;;;4.10;;
31618;SDS011;18230;51.502;7.108;2024-02-21T12:13:22;14.38;;;4.70;;
31618;SDS011;18230;51.502;7.108;2024-02-21T12:18:24;19.05;;;4.25;;
31618;SDS011;18230;51.502;7.108;2024-02-21T12:23:26;11.00;;;3.78;;
31618;SDS011;18230;51.502;7.108;2024-02-21T12:28:27;10.65;;;3.95;;
31618;SDS011;18230;51.502;7.108;2024-02-21T12:33:28;13.68;;;3.30;;
31618;SDS011;18230;51.502;7.108;2024-02-21T12:38:28;12.95;;;3.33;;
31618;SDS011;18230;51.502;7.108;2024-02-21T12:43:29;15.65;;;4.45;;
31618;SDS011;18230;51.502;7.108;2024-02-21T12:48:30;15.70;;;3.88;;
31618;SDS011;18230;51.502;7.108;2024-02-21T12:53:30;10.85;;;3.58;;
31618;SDS011;18230;51.502;7.108;2024-02-21T12:58:31;13.45;;;4.20;;
31618;SDS011;18230;51.502;7.108;2024-02-21T13:03:32;12.50;;;3.72;;
31618;SDS011;18230;51.502;7.108;2024-02-21T13:08:33;14.48;;;3.63;;
31618;SDS011;18230;51.502;7.108;2024-02-21T13:13:35;11.82;;;3.42;;
31618;SDS011;18230;51.502;7.108;2024-02-21T13:18:35;16.00;;;4.03;;
31618;SDS011;18230;51.502;7.108;2024-02-21T13:23:38;14.50;;;3.10;;
31618;SDS011;18230;51.502;7.108;2024-02-21T13:28:40;15.90;;;3.40;;
31618;SDS011;18230;51.502;7.108;2024-02-21T13:33:41;12.88;;;3.45;;
31618;SDS011;18230;51.502;7.108;2024-02-21T13:38:41;10.90;;;2.92;;
31618;SDS011;18230;51.502;7.108;2024-02-21T13:43:42;14.40;;;3.92;;
31618;SDS011;18230;51.502;7.108;2024-02-21T13:48:42;9.18;;;3.38;;
31618;SDS011;18230;51.502;7.108;2024-02-21T13:53:43;14.05;;;3.28;;
31618;SDS011;18230;51.502;7.108;2024-02-21T13:58:44;13.10;;;3.83;;
31618;SDS011;18230;51.502;7.108;2024-02-21T14:03:44;11.60;;;3.60;;
31618;SDS011;18230;51.502;7.108;2024-02-21T14:08:45;10.80;;;3.13;;
31618;SDS011;18230;51.502;7.108;2024-02-21T14:13:45;15.57;;;3.75;;
31618;SDS011;18230;51.502;7.108;2024-02-21T14:18:46;12.32;;;3.03;;
31618;SDS011;18230;51.502;7.108;2024-02-21T14:23:47;9.48;;;2.90;;
31618;SDS011;18230;51.502;7.108;2024-02-21T14:28:47;13.00;;;2.90;;
31618;SDS011;18230;51.502;7.108;2024-02-21T14:33:48;11.50;;;2.97;;
31618;SDS011;18230;51.502;7.108;2024-02-21T14:38:49;12.43;;;3.22;;
31618;SDS011;18230;51.502;7.108;2024-02-21T14:43:51;13.75;;;2.83;;
31618;SDS011;18230;51.502;7.108;2024-02-21T14:48:51;12.43;;;3.10;;
31618;SDS011;18230;51.502;7.108;2024-02-21T14:53:53;10.80;;;3.10;;
31618;SDS011;18230;51.502;7.108;2024-02-21T14:58:55;9.75;;;3.03;;
31618;SDS011;18230;51.502;7.108;2024-02-21T15:03:56;13.02;;;3.38;;
31618;SDS011;18230;51.502;7.108;2024-02-21T15:08:57;10.85;;;2.90;;
31618;SDS011;18230;51.502;7.108;2024-02-21T15:13:58;14.23;;;3.20;;
31618;SDS011;18230;51.502;7.108;2024-02-21T15:18:59;14.20;;;3.00;;
31618;SDS011;18230;51.502;7.108;2024-02-21T15:24:00;10.30;;;3.10;;
31618;SDS011;18230;51.502;7.108;2024-02-21T15:29:01;7.45;;;2.40;;
31618;SDS011;18230;51.502;7.108;2024-02-21T15:34:02;8.95;;;2.80;;
31618;SDS011;18230;51.502;7.108;2024-02-21T15:39:03;9.82;;;2.90;;
31618;SDS011;18230;51.502;7.108;2024-02-21T15:44:04;12.07;;;2.60;;
31618;SDS011;18230;51.502;7.108;2024-02-21T15:49:05;8.20;;;2.72;;
31618;SDS011;18230;51.502;7.108;2024-02-21T15:54:06;14.95;;;3.53;;
31618;SDS011;18230;51.502;7.108;2024-02-21T15:59:08;8.68;;;2.70;;
31618;SDS011;18230;51.502;7.108;2024-02-21T16:04:11;14.65;;;3.67;;
31618;SDS011;18230;51.502;7.108;2024-02-21T16:09:11;11.20;;;3.15;;
31618;SDS011;18230;51.502;7.108;2024-02-21T16:14:12;10.60;;;2.67;;
31618;SDS011;18230;51.502;7.108;2024-02-21T16:19:12;12.32;;;2.92;;
31618;SDS011;18230;51.502;7.108;2024-02-21T16:24:14;7.25;;;2.40;;
31618;SDS011;18230;51.502;7.108;2024-02-21T16:29:15;9.40;;;2.97;;
31618;SDS011;18230;51.502;7.108;2024-02-21T16:34:16;11.57;;;2.45;;
31618;SDS011;18230;51.502;7.108;2024-02-21T16:39:16;9.82;;;3.38;;
31618;SDS011;18230;51.502;7.108;2024-02-21T16:44:17;9.43;;;2.90;;
31618;SDS011;18230;51.502;7.108;2024-02-21T16:49:17;6.55;;;2.67;;
31618;SDS011;18230;51.502;7.108;2024-02-21T16:54:24;10.57;;;3.00;;
31618;SDS011;18230;51.502;7.108;2024-02-21T16:59:27;10.25;;;2.75;;
31618;SDS011;18230;51.502;7.108;2024-02-21T17:04:28;6.65;;;2.15;;
31618;SDS011;18230;51.502;7.108;2024-02-21T17:09:29;8.43;;;2.80;;
31618;SDS011;18230;51.502;7.108;2024-02-21T17:14:32;9.13;;;2.72;;
31618;SDS011;18230;51.502;7.108;2024-02-21T17:19:33;19.73;;;3.17;;
31618;SDS011;18230;51.502;7.108;2024-02-21T17:24:34;9.48;;;3.30;;
31618;SDS011;18230;51.502;7.108;2024-02-21T17:29:34;11.75;;;3.55;;
31618;SDS011;18230;51.502;7.108;2024-02-21T17:34:35;8.25;;;2.78;;
31618;SDS011;18230;51.502;7.108;2024-02-21T17:39:36;10.20;;;3.50;;
31618;SDS011;18230;51.502;7.108;2024-02-21T17:44:36;10.05;;;2.80;;
31618;SDS011;18230;51.502;7.108;2024-02-21T17:49:38;13.07;;;3.60;;
31618;SDS011;18230;51.502;7.108;2024-02-21T17:54:39;10.25;;;3.70;;
31618;SDS011;18230;51.502;7.108;2024-02-21T17:59:44;7.55;;;2.95;;
31618;SDS011;18230;51.502;7.108;2024-02-21T18:04:45;9.38;;;2.60;;
31618;SDS011;18230;51.502;7.108;2024-02-21T18:09:47;10.07;;;2.63;;
31618;SDS011;18230;51.502;7.108;2024-02-21T18:14:50;11.90;;;3.13;;
31618;SDS011;18230;51.502;7.108;2024-02-21T18:19:51;9.52;;;2.53;;
31618;SDS011;18230;51.502;7.108;2024-02-21T18:24:51;11.02;;;2.72;;
31618;SDS011;18230;51.502;7.108;2024-02-21T18:29:52;10.77;;;3.25;;
31618;SDS011;18230;51.502;7.108;2024-02-21T18:34:53;9.75;;;3.10;;
31618;SDS011;18230;51.502;7.108;2024-02-21T18:39:53;11.63;;;3.13;;
31618;SDS011;18230;51.502;7.108;2024-02-21T18:44:54;7.70;;;2.92;;
31618;SDS011;18230;51.502;7.108;2024-02-21T18:49:56;9.15;;;3.03;;
31618;SDS011;18230;51.502;7.108;2024-02-21T18:54:56;14.95;;;3.22;;
31618;SDS011;18230;51.502;7.108;2024-02-21T18:59:57;14.25;;;3.72;;
31618;SDS011;18230;51.502;7.108;2024-02-21T19:04:58;9.82;;;3.30;;
31618;SDS011;18230;51.502;7.108;2024-02-21T19:09:59;8.45;;;2.85;;
31618;SDS011;18230;51.502;7.108;2024-02-21T19:15:00;13.75;;;3.20;;
31618;SDS011;18230;51.502;7.108;2024-02-21T19:20:01;10.60;;;3.15;;
31618;SDS011;18230;51.502;7.108;2024-02-21T19:25:01;12.38;;;4.00;;
31618;SDS011;18230;51.502;7.108;2024-02-21T19:30:07;11.30;;;3.08;;
31618;SDS011;18230;51.502;7.108;2024-02-21T19:35:12;10.98;;;3.33;;
31618;SDS011;18230;51.502;7.108;2024-02-21T19:40:13;12.90;;;3.17;;
31618;SDS011;18230;51.502;7.108;2024-02-21T19:45:13;12.10;;;3.38;;
31618;SDS011;18230;51.502;7.108;2024-02-21T19:50:14;10.07;;;3.15;;
31618;SDS011;18230;51.502;7.108;2024-02-21T19:55:21;13.87;;;3.37;;
31618;SDS011;18230;51.502;7.108;2024-02-21T20:00:21;10.23;;;3.30;;
31618;SDS011;18230;51.502;7.108;2024-02-21T20:05:22;12.18;;;3.53;;
31618;SDS011;18230;51.502;7.108;2024-02-21T20:10:24;10.63;;;3.28;;
31618;SDS011;18230;51.502;7.108;2024-02-21T20:15:25;11.90;;;3.47;;
31618;SDS011;18230;51.502;7.108;2024-02-21T20:20:26;9.45;;;3.67;;
31618;SDS011;18230;51.502;7.108;2024-02-21T20:25:33;11.23;;;3.85;;
31618;SDS011;18230;51.502;7.108;2024-02-21T20:30:33;9.25;;;4.22;;
31618;SDS011;18230;51.502;7.108;2024-02-21T20:35:34;15.45;;;3.92;;
31618;SDS011;18230;51.502;7.108;2024-02-21T20:40:34;10.77;;;3.92;;
31618;SDS011;18230;51.502;7.108;2024-02-21T20:45:35;11.75;;;4.22;;
31618;SDS011;18230;51.502;7.108;2024-02-21T20:50:36;17.60;;;4.82;;
31618;SDS011;18230;51.502;7.108;2024-02-21T20:55:37;9.82;;;4.00;;
31618;SDS011;18230;51.502;7.108;2024-02-21T21:00:38;11.05;;;4.07;;
31618;SDS011;18230;51.502;7.108;2024-02-21T21:05:39;9.35;;;3.85;;
31618;SDS011;18230;51.502;7.108;2024-02-21T21:10:41;10.93;;;4.20;;
31618;SDS011;18230;51.502;7.108;2024-02-21T21:15:42;11.55;;;4.53;;
31618;SDS011;18230;51.502;7.108;2024-02-21T21:20:43;8.68;;;3.67;;
31618;SDS011;18230;51.502;7.108;2024-02-21T21:25:44;9.30;;;4.13;;
31618;SDS011;18230;51.502;7.108;2024-02-21T21:30:45;7.78;;;3.90;;
31618;SDS011;18230;51.502;7.108;2024-02-21T21:35:46;13.23;;;3.83;;
31618;SDS011;18230;51.502;7.108;2024-02-21T21:40:51;11.48;;;4.75;;
31618;SDS011;18230;51.502;7.108;2024-02-21T21:45:52;8.63;;;4.40;;
31618;SDS011;18230;51.502;7.108;2024-02-21T21:50:52;8.30;;;4.28;;
31618;SDS011;18230;51.502;7.108;2024-02-21T21:55:53;8.43;;;3.85;;
31618;SDS011;18230;51.502;7.108;2024-02-21T22:00:54;11.40;;;3.95;;
31618;SDS011;18230;51.502;7.108;2024-02-21T22:05:54;9.55;;;4.03;;
31618;SDS011;18230;51.502;7.108;2024-02-21T22:10:55;7.63;;;4.25;;
31618;SDS011;18230;51.502;7.108;2024-02-21T22:15:55;11.63;;;3.80;;
31618;SDS011;18230;51.502;7.108;2024-02-21T22:20:57;7.55;;;3.70;;
31618;SDS011;18230;51.502;7.108;2024-02-21T22:25:59;5.53;;;3.30;;
31618;SDS011;18230;51.502;7.108;2024-02-21T22:30:59;7.57;;;3.75;;
31618;SDS011;18230;51.502;7.108;2024-02-21T22:36:00;7.97;;;3.28;;
31618;SDS011;18230;51.502;7.108;2024-02-21T22:41:01;5.47;;;3.47;;
31618;SDS011;18230;51.502;7.108;2024-02-21T22:46:01;6.72;;;3.17;;
31618;SDS011;18230;51.502;7.108;2024-02-21T22:51:02;4.07;;;2.45;;
31618;SDS011;18230;51.502;7.108;2024-02-21T22:56:03;4.00;;;2.22;;
31618;SDS011;18230;51.502;7.108;2024-02-21T23:01:08;5.78;;;2.20;;
31618;SDS011;18230;51.502;7.108;2024-02-21T23:06:10;4.15;;;2.10;;
31618;SDS011;18230;51.502;7.108;2024-02-21T23:11:11;4.75;;;2.40;;
31618;SDS011;18230;51.502;7.108;2024-02-21T23:16:12;4.88;;;2.22;;
31618;SDS011;18230;51.502;7.108;2024-02-21T23:21:12;3.42;;;1.90;;
31618;SDS011;18230;51.502;7.108;2024-02-21T23:26:13;2.45;;;1.65;;
31618;SDS011;18230;51.502;7.108;2024-02-21T23:31:13;3.47;;;1.58;;
31618;SDS011;18230;51.502;7.108;2024-02-21T23:36:14;3.72;;;1.70;;
31618;SDS011;18230;51.502;7.108;2024-02-21T23:41:15;3.80;;;1.50;;
31618;SDS011;18230;51.502;7.108;2024-02-21T23:46:16;11.68;;;1.45;;
31618;SDS011;18230;51.502;7.108;2024-02-21T23:51:19;1.77;;;1.20;;
31618;SDS011;18230;51.502;7.108;2024-02-21T23:56:20;2.42;;;1.40;;
